sensor_id;sensor_type;location;lat;lon;timestamp;P1;durP1;ratioP1;P2;durP2;ratioP2
58306;SDS011;44116;50.884;4.768;2024-01-30T00:00:16;9.0;;;5.3;;
58306;SDS011;44116;50.884;4.768;2024-01-30T00:02:15;11.3;;;5.8;;
58306;SDS011;44116;50.884;4.768;2024-01-30T00:04:15;8.7;;;5.1;;
58306;SDS011;44116;50.884;4.768;2024-01-30T00:06:14;10.2;;;5.4;;
58306;SDS011;44116;50.884;4.768;2024-01-30T00:08:14;9.5;;;5.7;;
58306;SDS011;44116;50.884;4.768;2024-01-30T00:10:14;8.5;;;5.6;;
58306;SDS011;44116;50.884;4.768;2024-01-30T00:12:13;8.9;;;5.2;;
58306;SDS011;44116;50.884;4.768;2024-01-30T00:14:13;7.3;;;4.9;;
58306;SDS011;44116;50.884;4.768;2024-01-30T00:18:12;9.6;;;5.3;;
58306;SDS011;44116;50.884;4.768;2024-01-30T00:20:12;9.8;;;5.4;;
58306;SDS011;44116;50.884;4.768;2024-01-30T00:22:12;9.3;;;5.6;;
58306;SDS011;44116;50.884;4.768;2024-01-30T00:24:12;8.2;;;5.4;;
58306;SDS011;44116;50.884;4.768;2024-01-30T00:28:11;8.6;;;5.5;;
58306;SDS011;44116;50.884;4.768;2024-01-30T00:30:12;10.3;;;5.6;;
58306;SDS011;44116;50.884;4.768;2024-01-30T00:32:10;8.3;;;5.2;;
58306;SDS011;44116;50.884;4.768;2024-01-30T00:34:10;7.5;;;5.3;;
58306;SDS011;44116;50.884;4.768;2024-01-30T00:36:10;9.2;;;5.5;;
58306;SDS011;44116;50.884;4.768;2024-01-30T00:40:10;8.5;;;5.6;;
58306;SDS011;44116;50.884;4.768;2024-01-30T00:42:08;10.2;;;5.2;;
58306;SDS011;44116;50.884;4.768;2024-01-30T00:44:08;8.9;;;5.4;;
58306;SDS011;44116;50.884;4.768;2024-01-30T00:46:08;9.2;;;5.2;;
58306;SDS011;44116;50.884;4.768;2024-01-30T00:48:08;11.2;;;5.1;;
58306;SDS011;44116;50.884;4.768;2024-01-30T00:50:07;9.5;;;5.5;;
58306;SDS011;44116;50.884;4.768;2024-01-30T00:52:07;9.4;;;5.3;;
58306;SDS011;44116;50.884;4.768;2024-01-30T00:54:07;9.8;;;5.6;;
58306;SDS011;44116;50.884;4.768;2024-01-30T00:58:06;9.1;;;5.0;;
58306;SDS011;44116;50.884;4.768;2024-01-30T01:00:07;9.8;;;5.4;;
58306;SDS011;44116;50.884;4.768;2024-01-30T01:02:05;9.7;;;5.2;;
58306;SDS011;44116;50.884;4.768;2024-01-30T01:04:05;10.0;;;5.8;;
58306;SDS011;44116;50.884;4.768;2024-01-30T01:06:05;9.0;;;5.3;;
58306;SDS011;44116;50.884;4.768;2024-01-30T01:08:05;9.9;;;5.6;;
58306;SDS011;44116;50.884;4.768;2024-01-30T01:10:06;8.7;;;5.1;;
58306;SDS011;44116;50.884;4.768;2024-01-30T01:12:04;8.5;;;5.2;;
58306;SDS011;44116;50.884;4.768;2024-01-30T01:14:03;8.0;;;5.1;;
58306;SDS011;44116;50.884;4.768;2024-01-30T01:16:03;8.4;;;5.0;;
58306;SDS011;44116;50.884;4.768;2024-01-30T01:20:04;9.8;;;5.4;;
58306;SDS011;44116;50.884;4.768;2024-01-30T01:22:03;9.5;;;5.2;;
58306;SDS011;44116;50.884;4.768;2024-01-30T01:28:02;9.9;;;5.4;;
58306;SDS011;44116;50.884;4.768;2024-01-30T01:30:01;7.6;;;4.9;;
58306;SDS011;44116;50.884;4.768;2024-01-30T01:32:02;10.7;;;5.1;;
58306;SDS011;44116;50.884;4.768;2024-01-30T01:34:00;10.0;;;5.3;;
58306;SDS011;44116;50.884;4.768;2024-01-30T01:36:00;10.1;;;5.5;;
58306;SDS011;44116;50.884;4.768;2024-01-30T01:38:00;7.1;;;5.0;;
58306;SDS011;44116;50.884;4.768;2024-01-30T01:39:59;9.0;;;4.9;;
58306;SDS011;44116;50.884;4.768;2024-01-30T01:41:59;8.9;;;5.0;;
58306;SDS011;44116;50.884;4.768;2024-01-30T01:43:59;11.0;;;5.6;;
58306;SDS011;44116;50.884;4.768;2024-01-30T01:46:00;9.5;;;5.5;;
58306;SDS011;44116;50.884;4.768;2024-01-30T01:47:58;10.0;;;5.3;;
58306;SDS011;44116;50.884;4.768;2024-01-30T01:49:58;9.7;;;5.0;;
58306;SDS011;44116;50.884;4.768;2024-01-30T01:51:58;10.0;;;5.5;;
58306;SDS011;44116;50.884;4.768;2024-01-30T01:53:59;8.1;;;4.8;;
58306;SDS011;44116;50.884;4.768;2024-01-30T01:55:57;8.0;;;5.1;;
58306;SDS011;44116;50.884;4.768;2024-01-30T01:59:56;7.8;;;4.7;;
58306;SDS011;44116;50.884;4.768;2024-01-30T02:01:56;9.4;;;5.4;;
58306;SDS011;44116;50.884;4.768;2024-01-30T02:03:56;9.2;;;5.0;;
58306;SDS011;44116;50.884;4.768;2024-01-30T02:07:56;10.2;;;5.2;;
58306;SDS011;44116;50.884;4.768;2024-01-30T02:11:55;9.6;;;5.4;;
58306;SDS011;44116;50.884;4.768;2024-01-30T02:13:54;8.6;;;5.1;;
58306;SDS011;44116;50.884;4.768;2024-01-30T02:17:54;9.3;;;4.9;;
58306;SDS011;44116;50.884;4.768;2024-01-30T02:19:53;8.1;;;5.0;;
58306;SDS011;44116;50.884;4.768;2024-01-30T02:21:53;8.8;;;4.9;;
58306;SDS011;44116;50.884;4.768;2024-01-30T02:23:54;10.2;;;5.9;;
58306;SDS011;44116;50.884;4.768;2024-01-30T02:25:53;8.2;;;5.2;;
58306;SDS011;44116;50.884;4.768;2024-01-30T02:27:52;9.6;;;5.3;;
58306;SDS011;44116;50.884;4.768;2024-01-30T02:29:52;9.6;;;5.2;;
58306;SDS011;44116;50.884;4.768;2024-01-30T02:31:51;9.5;;;5.1;;
58306;SDS011;44116;50.884;4.768;2024-01-30T02:33:51;9.0;;;4.9;;
58306;SDS011;44116;50.884;4.768;2024-01-30T02:35:51;10.5;;;5.0;;
58306;SDS011;44116;50.884;4.768;2024-01-30T02:39:50;7.5;;;5.1;;
58306;SDS011;44116;50.884;4.768;2024-01-30T02:43:50;8.8;;;5.3;;
58306;SDS011;44116;50.884;4.768;2024-01-30T02:45:49;10.7;;;5.7;;
58306;SDS011;44116;50.884;4.768;2024-01-30T02:49:49;10.2;;;6.0;;
58306;SDS011;44116;50.884;4.768;2024-01-30T02:53:48;10.3;;;5.6;;
58306;SDS011;44116;50.884;4.768;2024-01-30T02:55:48;11.8;;;5.9;;
58306;SDS011;44116;50.884;4.768;2024-01-30T02:57:48;12.6;;;6.4;;
58306;SDS011;44116;50.884;4.768;2024-01-30T02:59:47;15.3;;;5.8;;
58306;SDS011;44116;50.884;4.768;2024-01-30T03:01:47;11.0;;;6.0;;
58306;SDS011;44116;50.884;4.768;2024-01-30T03:03:47;10.5;;;5.7;;
58306;SDS011;44116;50.884;4.768;2024-01-30T03:05:46;9.9;;;5.8;;
58306;SDS011;44116;50.884;4.768;2024-01-30T03:07:46;9.3;;;5.9;;
58306;SDS011;44116;50.884;4.768;2024-01-30T03:09:46;8.9;;;5.3;;
58306;SDS011;44116;50.884;4.768;2024-01-30T03:11:45;9.6;;;5.2;;
58306;SDS011;44116;50.884;4.768;2024-01-30T03:13:45;9.5;;;4.9;;
58306;SDS011;44116;50.884;4.768;2024-01-30T03:15:45;8.0;;;5.3;;
58306;SDS011;44116;50.884;4.768;2024-01-30T03:17:44;8.4;;;5.2;;
58306;SDS011;44116;50.884;4.768;2024-01-30T03:21:44;8.5;;;4.7;;
58306;SDS011;44116;50.884;4.768;2024-01-30T03:23:43;8.9;;;5.3;;
58306;SDS011;44116;50.884;4.768;2024-01-30T03:25:43;8.4;;;5.0;;
58306;SDS011;44116;50.884;4.768;2024-01-30T03:27:43;8.7;;;5.2;;
58306;SDS011;44116;50.884;4.768;2024-01-30T03:29:43;10.2;;;5.3;;
58306;SDS011;44116;50.884;4.768;2024-01-30T03:31:42;8.2;;;5.1;;
58306;SDS011;44116;50.884;4.768;2024-01-30T03:33:42;8.6;;;4.9;;
58306;SDS011;44116;50.884;4.768;2024-01-30T03:35:42;9.5;;;5.2;;
58306;SDS011;44116;50.884;4.768;2024-01-30T03:37:41;9.4;;;5.7;;
58306;SDS011;44116;50.884;4.768;2024-01-30T03:39:41;10.5;;;5.4;;
58306;SDS011;44116;50.884;4.768;2024-01-30T03:41:42;8.4;;;4.6;;
58306;SDS011;44116;50.884;4.768;2024-01-30T03:43:40;8.5;;;5.1;;
58306;SDS011;44116;50.884;4.768;2024-01-30T03:45:40;7.5;;;4.7;;
58306;SDS011;44116;50.884;4.768;2024-01-30T03:47:43;8.4;;;4.9;;
58306;SDS011;44116;50.884;4.768;2024-01-30T03:49:40;8.0;;;5.1;;
58306;SDS011;44116;50.884;4.768;2024-01-30T03:51:39;8.6;;;4.9;;
58306;SDS011;44116;50.884;4.768;2024-01-30T03:53:39;8.0;;;5.1;;
58306;SDS011;44116;50.884;4.768;2024-01-30T03:55:38;9.2;;;4.5;;
58306;SDS011;44116;50.884;4.768;2024-01-30T03:57:38;9.6;;;5.1;;
58306;SDS011;44116;50.884;4.768;2024-01-30T04:03:37;11.3;;;4.8;;
58306;SDS011;44116;50.884;4.768;2024-01-30T04:05:37;9.3;;;4.7;;
58306;SDS011;44116;50.884;4.768;2024-01-30T04:07:37;9.2;;;4.8;;
58306;SDS011;44116;50.884;4.768;2024-01-30T04:11:36;9.0;;;5.1;;
58306;SDS011;44116;50.884;4.768;2024-01-30T04:13:36;6.9;;;5.0;;
58306;SDS011;44116;50.884;4.768;2024-01-30T04:15:35;9.4;;;4.8;;
58306;SDS011;44116;50.884;4.768;2024-01-30T04:17:35;12.1;;;5.4;;
58306;SDS011;44116;50.884;4.768;2024-01-30T04:19:37;10.0;;;5.1;;
58306;SDS011;44116;50.884;4.768;2024-01-30T04:21:35;8.7;;;4.9;;
58306;SDS011;44116;50.884;4.768;2024-01-30T04:23:34;13.1;;;5.4;;
58306;SDS011;44116;50.884;4.768;2024-01-30T04:25:34;8.3;;;5.0;;
58306;SDS011;44116;50.884;4.768;2024-01-30T04:27:34;9.1;;;5.4;;
58306;SDS011;44116;50.884;4.768;2024-01-30T04:29:33;9.0;;;5.0;;
58306;SDS011;44116;50.884;4.768;2024-01-30T04:31:35;9.9;;;5.2;;
58306;SDS011;44116;50.884;4.768;2024-01-30T04:33:33;8.5;;;5.0;;
58306;SDS011;44116;50.884;4.768;2024-01-30T04:37:33;8.9;;;5.1;;
58306;SDS011;44116;50.884;4.768;2024-01-30T04:39:32;8.9;;;4.9;;
58306;SDS011;44116;50.884;4.768;2024-01-30T04:43:31;8.4;;;5.0;;
58306;SDS011;44116;50.884;4.768;2024-01-30T04:45:31;8.1;;;4.9;;
58306;SDS011;44116;50.884;4.768;2024-01-30T04:47:31;8.5;;;5.2;;
58306;SDS011;44116;50.884;4.768;2024-01-30T04:49:30;10.6;;;5.4;;
58306;SDS011;44116;50.884;4.768;2024-01-30T04:51:30;7.7;;;4.7;;
58306;SDS011;44116;50.884;4.768;2024-01-30T04:53:30;10.0;;;5.6;;
58306;SDS011;44116;50.884;4.768;2024-01-30T04:55:30;7.6;;;5.4;;
58306;SDS011;44116;50.884;4.768;2024-01-30T04:57:29;7.9;;;5.2;;
58306;SDS011;44116;50.884;4.768;2024-01-30T05:01:29;8.3;;;5.5;;
58306;SDS011;44116;50.884;4.768;2024-01-30T05:05:28;9.2;;;5.2;;
58306;SDS011;44116;50.884;4.768;2024-01-30T05:13:27;10.4;;;5.5;;
58306;SDS011;44116;50.884;4.768;2024-01-30T05:15:26;8.6;;;5.2;;
58306;SDS011;44116;50.884;4.768;2024-01-30T05:17:26;9.6;;;5.3;;
58306;SDS011;44116;50.884;4.768;2024-01-30T05:19:26;7.8;;;4.9;;
58306;SDS011;44116;50.884;4.768;2024-01-30T05:21:26;9.7;;;5.3;;
58306;SDS011;44116;50.884;4.768;2024-01-30T05:23:25;10.8;;;5.4;;
58306;SDS011;44116;50.884;4.768;2024-01-30T05:27:25;9.1;;;5.6;;
58306;SDS011;44116;50.884;4.768;2024-01-30T05:29:25;9.4;;;5.4;;
58306;SDS011;44116;50.884;4.768;2024-01-30T05:33:24;7.9;;;5.3;;
58306;SDS011;44116;50.884;4.768;2024-01-30T05:35:24;8.6;;;5.2;;
58306;SDS011;44116;50.884;4.768;2024-01-30T05:37:23;10.7;;;5.7;;
58306;SDS011;44116;50.884;4.768;2024-01-30T05:39:23;9.3;;;5.1;;
58306;SDS011;44116;50.884;4.768;2024-01-30T05:41:23;10.1;;;5.5;;
58306;SDS011;44116;50.884;4.768;2024-01-30T05:43:22;8.5;;;5.3;;
58306;SDS011;44116;50.884;4.768;2024-01-30T05:45:22;9.5;;;5.9;;
58306;SDS011;44116;50.884;4.768;2024-01-30T05:47:22;10.5;;;5.4;;
58306;SDS011;44116;50.884;4.768;2024-01-30T05:49:21;11.7;;;5.5;;
58306;SDS011;44116;50.884;4.768;2024-01-30T05:51:21;10.8;;;5.3;;
58306;SDS011;44116;50.884;4.768;2024-01-30T05:57:20;11.1;;;6.0;;
58306;SDS011;44116;50.884;4.768;2024-01-30T05:59:20;10.2;;;5.4;;
58306;SDS011;44116;50.884;4.768;2024-01-30T06:01:24;10.8;;;5.5;;
58306;SDS011;44116;50.884;4.768;2024-01-30T06:03:19;12.0;;;6.0;;
58306;SDS011;44116;50.884;4.768;2024-01-30T06:05:19;8.2;;;5.5;;
58306;SDS011;44116;50.884;4.768;2024-01-30T06:07:19;8.0;;;5.6;;
58306;SDS011;44116;50.884;4.768;2024-01-30T06:09:18;7.8;;;5.1;;
58306;SDS011;44116;50.884;4.768;2024-01-30T06:11:18;10.7;;;5.6;;
58306;SDS011;44116;50.884;4.768;2024-01-30T06:13:18;8.1;;;5.2;;
58306;SDS011;44116;50.884;4.768;2024-01-30T06:15:17;9.9;;;5.5;;
58306;SDS011;44116;50.884;4.768;2024-01-30T06:17:17;8.5;;;5.3;;
58306;SDS011;44116;50.884;4.768;2024-01-30T06:19:17;9.0;;;5.5;;
58306;SDS011;44116;50.884;4.768;2024-01-30T06:21:18;10.5;;;5.8;;
58306;SDS011;44116;50.884;4.768;2024-01-30T06:23:16;10.5;;;5.5;;
58306;SDS011;44116;50.884;4.768;2024-01-30T06:27:16;10.1;;;5.4;;
58306;SDS011;44116;50.884;4.768;2024-01-30T06:29:15;9.3;;;5.9;;
58306;SDS011;44116;50.884;4.768;2024-01-30T06:31:15;9.5;;;5.8;;
58306;SDS011;44116;50.884;4.768;2024-01-30T06:33:15;8.8;;;5.7;;
58306;SDS011;44116;50.884;4.768;2024-01-30T06:37:14;9.5;;;5.5;;
58306;SDS011;44116;50.884;4.768;2024-01-30T06:39:14;10.0;;;5.6;;
58306;SDS011;44116;50.884;4.768;2024-01-30T06:41:14;9.8;;;6.0;;
58306;SDS011;44116;50.884;4.768;2024-01-30T06:43:13;9.8;;;5.4;;
58306;SDS011;44116;50.884;4.768;2024-01-30T06:45:17;9.1;;;5.9;;
58306;SDS011;44116;50.884;4.768;2024-01-30T06:47:13;11.1;;;6.2;;
58306;SDS011;44116;50.884;4.768;2024-01-30T06:49:13;9.3;;;5.8;;
58306;SDS011;44116;50.884;4.768;2024-01-30T06:53:12;8.7;;;5.6;;
58306;SDS011;44116;50.884;4.768;2024-01-30T06:55:18;12.6;;;5.8;;
58306;SDS011;44116;50.884;4.768;2024-01-30T06:57:11;11.0;;;6.1;;
58306;SDS011;44116;50.884;4.768;2024-01-30T07:01:11;9.5;;;5.8;;
58306;SDS011;44116;50.884;4.768;2024-01-30T07:03:10;9.2;;;6.0;;
58306;SDS011;44116;50.884;4.768;2024-01-30T07:05:10;10.5;;;6.4;;
58306;SDS011;44116;50.884;4.768;2024-01-30T07:07:10;10.8;;;6.0;;
58306;SDS011;44116;50.884;4.768;2024-01-30T07:11:09;13.4;;;6.8;;
58306;SDS011;44116;50.884;4.768;2024-01-30T07:13:09;9.3;;;5.8;;
58306;SDS011;44116;50.884;4.768;2024-01-30T07:17:08;10.1;;;6.1;;
58306;SDS011;44116;50.884;4.768;2024-01-30T07:19:08;9.7;;;5.6;;
58306;SDS011;44116;50.884;4.768;2024-01-30T07:21:08;11.0;;;6.4;;
58306;SDS011;44116;50.884;4.768;2024-01-30T07:23:08;10.3;;;6.3;;
58306;SDS011;44116;50.884;4.768;2024-01-30T07:25:08;10.6;;;6.5;;
58306;SDS011;44116;50.884;4.768;2024-01-30T07:27:07;12.4;;;6.1;;
58306;SDS011;44116;50.884;4.768;2024-01-30T07:29:06;10.0;;;5.8;;
58306;SDS011;44116;50.884;4.768;2024-01-30T07:31:06;9.2;;;5.9;;
58306;SDS011;44116;50.884;4.768;2024-01-30T07:33:06;11.0;;;6.3;;
58306;SDS011;44116;50.884;4.768;2024-01-30T07:35:06;12.2;;;6.7;;
58306;SDS011;44116;50.884;4.768;2024-01-30T07:37:06;12.5;;;6.4;;
58306;SDS011;44116;50.884;4.768;2024-01-30T07:39:05;10.8;;;6.1;;
58306;SDS011;44116;50.884;4.768;2024-01-30T07:41:05;12.7;;;6.5;;
58306;SDS011;44116;50.884;4.768;2024-01-30T07:43:04;11.9;;;6.4;;
58306;SDS011;44116;50.884;4.768;2024-01-30T07:45:04;11.5;;;6.2;;
58306;SDS011;44116;50.884;4.768;2024-01-30T07:47:05;13.3;;;6.6;;
58306;SDS011;44116;50.884;4.768;2024-01-30T07:49:03;12.5;;;6.2;;
58306;SDS011;44116;50.884;4.768;2024-01-30T07:51:03;11.7;;;6.5;;
58306;SDS011;44116;50.884;4.768;2024-01-30T07:53:03;10.5;;;6.6;;
58306;SDS011;44116;50.884;4.768;2024-01-30T07:55:03;10.9;;;6.4;;
58306;SDS011;44116;50.884;4.768;2024-01-30T07:57:02;11.1;;;7.0;;
58306;SDS011;44116;50.884;4.768;2024-01-30T07:59:02;15.2;;;7.3;;
58306;SDS011;44116;50.884;4.768;2024-01-30T08:01:02;14.5;;;6.9;;
58306;SDS011;44116;50.884;4.768;2024-01-30T08:03:02;14.8;;;7.7;;
58306;SDS011;44116;50.884;4.768;2024-01-30T08:05:01;13.0;;;8.0;;
58306;SDS011;44116;50.884;4.768;2024-01-30T08:07:01;15.5;;;8.2;;
58306;SDS011;44116;50.884;4.768;2024-01-30T08:09:01;15.7;;;7.9;;
58306;SDS011;44116;50.884;4.768;2024-01-30T08:11:00;13.1;;;7.3;;
58306;SDS011;44116;50.884;4.768;2024-01-30T08:13:00;12.6;;;7.2;;
58306;SDS011;44116;50.884;4.768;2024-01-30T08:15:00;13.1;;;6.9;;
58306;SDS011;44116;50.884;4.768;2024-01-30T08:16:59;13.8;;;7.1;;
58306;SDS011;44116;50.884;4.768;2024-01-30T08:18:59;17.0;;;8.1;;
58306;SDS011;44116;50.884;4.768;2024-01-30T08:20:59;14.4;;;7.2;;
58306;SDS011;44116;50.884;4.768;2024-01-30T08:24:59;12.7;;;6.8;;
58306;SDS011;44116;50.884;4.768;2024-01-30T08:26:58;10.2;;;6.7;;
58306;SDS011;44116;50.884;4.768;2024-01-30T08:28:58;12.3;;;6.8;;
58306;SDS011;44116;50.884;4.768;2024-01-30T08:30:58;13.2;;;6.5;;
58306;SDS011;44116;50.884;4.768;2024-01-30T08:32:57;11.2;;;6.6;;
58306;SDS011;44116;50.884;4.768;2024-01-30T08:34:57;12.3;;;6.7;;
58306;SDS011;44116;50.884;4.768;2024-01-30T08:38:56;12.2;;;7.1;;
58306;SDS011;44116;50.884;4.768;2024-01-30T08:42:56;13.4;;;6.9;;
58306;SDS011;44116;50.884;4.768;2024-01-30T08:44:56;13.5;;;6.8;;
58306;SDS011;44116;50.884;4.768;2024-01-30T08:48:55;12.0;;;6.2;;
58306;SDS011;44116;50.884;4.768;2024-01-30T08:50:55;14.2;;;6.5;;
58306;SDS011;44116;50.884;4.768;2024-01-30T08:52:55;10.6;;;6.6;;
58306;SDS011;44116;50.884;4.768;2024-01-30T08:54:54;11.3;;;6.3;;
58306;SDS011;44116;50.884;4.768;2024-01-30T08:56:54;13.0;;;6.4;;
58306;SDS011;44116;50.884;4.768;2024-01-30T08:58:54;13.0;;;6.9;;
58306;SDS011;44116;50.884;4.768;2024-01-30T09:00:53;11.0;;;6.5;;
58306;SDS011;44116;50.884;4.768;2024-01-30T09:02:53;13.0;;;6.9;;
58306;SDS011;44116;50.884;4.768;2024-01-30T09:04:53;15.9;;;8.1;;
58306;SDS011;44116;50.884;4.768;2024-01-30T09:06:52;16.9;;;8.7;;
58306;SDS011;44116;50.884;4.768;2024-01-30T09:08:52;14.0;;;8.6;;
58306;SDS011;44116;50.884;4.768;2024-01-30T09:10:52;13.5;;;6.8;;
58306;SDS011;44116;50.884;4.768;2024-01-30T09:12:52;13.7;;;7.4;;
58306;SDS011;44116;50.884;4.768;2024-01-30T09:16:51;10.6;;;7.0;;
58306;SDS011;44116;50.884;4.768;2024-01-30T09:18:51;12.9;;;6.6;;
58306;SDS011;44116;50.884;4.768;2024-01-30T09:20:51;11.6;;;7.2;;
58306;SDS011;44116;50.884;4.768;2024-01-30T09:22:50;12.9;;;7.1;;
58306;SDS011;44116;50.884;4.768;2024-01-30T09:24:50;15.5;;;7.4;;
58306;SDS011;44116;50.884;4.768;2024-01-30T09:26:50;10.2;;;6.4;;
58306;SDS011;44116;50.884;4.768;2024-01-30T09:28:50;11.7;;;6.9;;
58306;SDS011;44116;50.884;4.768;2024-01-30T09:30:49;13.8;;;6.6;;
58306;SDS011;44116;50.884;4.768;2024-01-30T09:34:49;10.9;;;7.0;;
58306;SDS011;44116;50.884;4.768;2024-01-30T09:36:49;12.1;;;6.5;;
58306;SDS011;44116;50.884;4.768;2024-01-30T09:44:51;12.6;;;7.2;;
58306;SDS011;44116;50.884;4.768;2024-01-30T09:46:48;12.1;;;6.6;;
58306;SDS011;44116;50.884;4.768;2024-01-30T09:48:47;12.6;;;6.9;;
58306;SDS011;44116;50.884;4.768;2024-01-30T09:50:47;13.2;;;7.2;;
58306;SDS011;44116;50.884;4.768;2024-01-30T09:52:47;11.0;;;6.5;;
58306;SDS011;44116;50.884;4.768;2024-01-30T09:54:49;17.6;;;7.1;;
58306;SDS011;44116;50.884;4.768;2024-01-30T09:58:46;12.5;;;7.2;;
58306;SDS011;44116;50.884;4.768;2024-01-30T10:04:47;12.8;;;7.5;;
58306;SDS011;44116;50.884;4.768;2024-01-30T10:06:46;11.3;;;7.3;;
58306;SDS011;44116;50.884;4.768;2024-01-30T10:08:44;14.4;;;8.0;;
58306;SDS011;44116;50.884;4.768;2024-01-30T10:10:46;11.6;;;7.1;;
58306;SDS011;44116;50.884;4.768;2024-01-30T10:14:44;13.6;;;7.4;;
58306;SDS011;44116;50.884;4.768;2024-01-30T10:16:45;12.8;;;7.2;;
58306;SDS011;44116;50.884;4.768;2024-01-30T10:18:43;16.4;;;7.7;;
58306;SDS011;44116;50.884;4.768;2024-01-30T10:20:43;12.2;;;7.2;;
58306;SDS011;44116;50.884;4.768;2024-01-30T10:24:42;14.0;;;7.7;;
58306;SDS011;44116;50.884;4.768;2024-01-30T10:26:43;14.9;;;7.3;;
58306;SDS011;44116;50.884;4.768;2024-01-30T10:28:42;13.9;;;7.6;;
58306;SDS011;44116;50.884;4.768;2024-01-30T10:30:42;14.8;;;7.4;;
58306;SDS011;44116;50.884;4.768;2024-01-30T10:32:41;14.1;;;8.1;;
58306;SDS011;44116;50.884;4.768;2024-01-30T10:34:41;14.4;;;8.0;;
58306;SDS011;44116;50.884;4.768;2024-01-30T10:36:43;13.7;;;7.5;;
58306;SDS011;44116;50.884;4.768;2024-01-30T10:38:42;14.6;;;7.2;;
58306;SDS011;44116;50.884;4.768;2024-01-30T10:40:42;17.3;;;8.3;;
58306;SDS011;44116;50.884;4.768;2024-01-30T10:42:42;16.8;;;8.0;;
58306;SDS011;44116;50.884;4.768;2024-01-30T10:44:47;13.7;;;7.5;;
58306;SDS011;44116;50.884;4.768;2024-01-30T10:46:42;17.0;;;7.8;;
58306;SDS011;44116;50.884;4.768;2024-01-30T10:48:50;13.4;;;7.3;;
58306;SDS011;44116;50.884;4.768;2024-01-30T10:50:40;15.2;;;8.1;;
58306;SDS011;44116;50.884;4.768;2024-01-30T10:52:40;15.9;;;7.9;;
58306;SDS011;44116;50.884;4.768;2024-01-30T10:54:40;17.0;;;8.3;;
58306;SDS011;44116;50.884;4.768;2024-01-30T10:56:39;15.3;;;7.8;;
58306;SDS011;44116;50.884;4.768;2024-01-30T10:58:38;15.3;;;8.2;;
58306;SDS011;44116;50.884;4.768;2024-01-30T11:00:38;18.5;;;8.5;;
58306;SDS011;44116;50.884;4.768;2024-01-30T11:02:40;13.0;;;8.2;;
58306;SDS011;44116;50.884;4.768;2024-01-30T11:04:38;16.6;;;8.6;;
58306;SDS011;44116;50.884;4.768;2024-01-30T11:06:41;18.0;;;8.8;;
58306;SDS011;44116;50.884;4.768;2024-01-30T11:08:37;16.3;;;8.5;;
58306;SDS011;44116;50.884;4.768;2024-01-30T11:10:44;15.6;;;9.4;;
58306;SDS011;44116;50.884;4.768;2024-01-30T11:12:38;16.7;;;8.9;;
58306;SDS011;44116;50.884;4.768;2024-01-30T11:14:37;15.4;;;9.0;;
58306;SDS011;44116;50.884;4.768;2024-01-30T11:16:39;14.5;;;8.2;;
58306;SDS011;44116;50.884;4.768;2024-01-30T11:18:36;15.2;;;8.5;;
58306;SDS011;44116;50.884;4.768;2024-01-30T11:20:35;13.8;;;7.9;;
58306;SDS011;44116;50.884;4.768;2024-01-30T11:22:35;13.8;;;7.1;;
58306;SDS011;44116;50.884;4.768;2024-01-30T11:24:39;13.6;;;7.3;;
58306;SDS011;44116;50.884;4.768;2024-01-30T11:26:34;13.6;;;7.0;;
58306;SDS011;44116;50.884;4.768;2024-01-30T11:28:34;13.0;;;6.9;;
58306;SDS011;44116;50.884;4.768;2024-01-30T11:30:34;14.6;;;6.6;;
58306;SDS011;44116;50.884;4.768;2024-01-30T11:32:34;12.6;;;6.4;;
58306;SDS011;44116;50.884;4.768;2024-01-30T11:36:34;12.5;;;6.0;;
58306;SDS011;44116;50.884;4.768;2024-01-30T11:38:33;13.8;;;6.7;;
58306;SDS011;44116;50.884;4.768;2024-01-30T11:40:33;13.5;;;6.2;;
58306;SDS011;44116;50.884;4.768;2024-01-30T11:42:34;12.2;;;6.0;;
58306;SDS011;44116;50.884;4.768;2024-01-30T11:44:32;11.1;;;6.1;;
58306;SDS011;44116;50.884;4.768;2024-01-30T11:46:32;10.2;;;5.4;;
58306;SDS011;44116;50.884;4.768;2024-01-30T11:48:31;16.3;;;5.9;;
58306;SDS011;44116;50.884;4.768;2024-01-30T11:50:32;11.4;;;5.6;;
58306;SDS011;44116;50.884;4.768;2024-01-30T11:52:33;10.3;;;5.0;;
58306;SDS011;44116;50.884;4.768;2024-01-30T11:56:30;13.8;;;4.9;;
58306;SDS011;44116;50.884;4.768;2024-01-30T11:58:30;8.7;;;4.4;;
58306;SDS011;44116;50.884;4.768;2024-01-30T12:00:30;12.8;;;4.6;;
58306;SDS011;44116;50.884;4.768;2024-01-30T12:02:30;12.3;;;4.2;;
58306;SDS011;44116;50.884;4.768;2024-01-30T12:04:29;10.8;;;3.7;;
58306;SDS011;44116;50.884;4.768;2024-01-30T12:06:29;7.9;;;2.7;;
58306;SDS011;44116;50.884;4.768;2024-01-30T12:10:28;9.1;;;3.1;;
58306;SDS011;44116;50.884;4.768;2024-01-30T12:12:28;7.8;;;2.7;;
58306;SDS011;44116;50.884;4.768;2024-01-30T12:14:28;6.1;;;2.4;;
58306;SDS011;44116;50.884;4.768;2024-01-30T12:16:27;5.8;;;2.6;;
58306;SDS011;44116;50.884;4.768;2024-01-30T12:18:27;5.7;;;2.1;;
58306;SDS011;44116;50.884;4.768;2024-01-30T12:20:27;6.7;;;2.3;;
58306;SDS011;44116;50.884;4.768;2024-01-30T12:22:27;6.0;;;1.9;;
58306;SDS011;44116;50.884;4.768;2024-01-30T12:28:26;6.8;;;1.7;;
58306;SDS011;44116;50.884;4.768;2024-01-30T12:30:27;4.4;;;1.3;;
58306;SDS011;44116;50.884;4.768;2024-01-30T12:32:26;5.0;;;1.7;;
58306;SDS011;44116;50.884;4.768;2024-01-30T12:34:25;4.9;;;1.5;;
58306;SDS011;44116;50.884;4.768;2024-01-30T12:36:25;4.1;;;1.3;;
58306;SDS011;44116;50.884;4.768;2024-01-30T12:38:24;4.3;;;1.2;;
58306;SDS011;44116;50.884;4.768;2024-01-30T12:40:24;4.7;;;1.1;;
58306;SDS011;44116;50.884;4.768;2024-01-30T12:46:25;5.4;;;1.2;;
58306;SDS011;44116;50.884;4.768;2024-01-30T12:48:23;4.2;;;1.0;;
58306;SDS011;44116;50.884;4.768;2024-01-30T12:56:22;2.6;;;0.9;;
58306;SDS011;44116;50.884;4.768;2024-01-30T13:02:21;4.2;;;1.2;;
58306;SDS011;44116;50.884;4.768;2024-01-30T13:04:21;2.7;;;1.0;;
58306;SDS011;44116;50.884;4.768;2024-01-30T13:08:20;3.4;;;0.9;;
58306;SDS011;44116;50.884;4.768;2024-01-30T13:10:20;2.3;;;0.8;;
58306;SDS011;44116;50.884;4.768;2024-01-30T13:12:19;4.1;;;1.1;;
58306;SDS011;44116;50.884;4.768;2024-01-30T13:14:19;2.8;;;0.8;;
58306;SDS011;44116;50.884;4.768;2024-01-30T13:18:18;2.4;;;0.7;;
58306;SDS011;44116;50.884;4.768;2024-01-30T13:20:18;3.7;;;0.9;;
58306;SDS011;44116;50.884;4.768;2024-01-30T13:22:18;3.1;;;0.7;;
58306;SDS011;44116;50.884;4.768;2024-01-30T13:28:17;3.1;;;0.9;;
58306;SDS011;44116;50.884;4.768;2024-01-30T13:32:17;2.8;;;0.8;;
58306;SDS011;44116;50.884;4.768;2024-01-30T13:40:16;6.9;;;1.2;;
58306;SDS011;44116;50.884;4.768;2024-01-30T13:44:15;4.1;;;0.9;;
58306;SDS011;44116;50.884;4.768;2024-01-30T13:46:15;3.7;;;1.0;;
58306;SDS011;44116;50.884;4.768;2024-01-30T13:48:14;4.2;;;0.9;;
58306;SDS011;44116;50.884;4.768;2024-01-30T13:50:15;4.8;;;1.0;;
58306;SDS011;44116;50.884;4.768;2024-01-30T13:54:14;5.5;;;1.2;;
58306;SDS011;44116;50.884;4.768;2024-01-30T13:56:14;4.8;;;1.1;;
58306;SDS011;44116;50.884;4.768;2024-01-30T14:00:13;3.9;;;1.3;;
58306;SDS011;44116;50.884;4.768;2024-01-30T14:02:13;4.8;;;1.2;;
58306;SDS011;44116;50.884;4.768;2024-01-30T14:04:12;6.5;;;1.4;;
58306;SDS011;44116;50.884;4.768;2024-01-30T14:06:12;6.2;;;1.2;;
58306;SDS011;44116;50.884;4.768;2024-01-30T14:08:12;5.6;;;1.5;;
58306;SDS011;44116;50.884;4.768;2024-01-30T14:10:12;6.7;;;1.6;;
58306;SDS011;44116;50.884;4.768;2024-01-30T14:12:11;6.1;;;1.4;;
58306;SDS011;44116;50.884;4.768;2024-01-30T14:14:11;6.0;;;1.3;;
58306;SDS011;44116;50.884;4.768;2024-01-30T14:16:11;3.6;;;1.1;;
58306;SDS011;44116;50.884;4.768;2024-01-30T14:18:10;4.0;;;1.2;;
58306;SDS011;44116;50.884;4.768;2024-01-30T14:20:11;3.9;;;1.1;;
58306;SDS011;44116;50.884;4.768;2024-01-30T14:22:10;3.9;;;1.2;;
58306;SDS011;44116;50.884;4.768;2024-01-30T14:24:10;5.6;;;1.4;;
58306;SDS011;44116;50.884;4.768;2024-01-30T14:26:09;5.7;;;1.2;;
58306;SDS011;44116;50.884;4.768;2024-01-30T14:28:09;6.9;;;1.3;;
58306;SDS011;44116;50.884;4.768;2024-01-30T14:30:10;5.8;;;1.2;;
58306;SDS011;44116;50.884;4.768;2024-01-30T14:32:09;4.2;;;1.5;;
58306;SDS011;44116;50.884;4.768;2024-01-30T14:34:08;5.0;;;1.4;;
58306;SDS011;44116;50.884;4.768;2024-01-30T14:38:08;4.5;;;1.2;;
58306;SDS011;44116;50.884;4.768;2024-01-30T14:40:08;5.3;;;1.3;;
58306;SDS011;44116;50.884;4.768;2024-01-30T14:42:07;6.2;;;1.7;;
58306;SDS011;44116;50.884;4.768;2024-01-30T14:44:07;6.0;;;1.5;;